RYR2HB LIEE-LIRP
Flight info
| Callsign | RYR2HB |
|---|---|
| Flight time | 0h 48m |
| Altitude | 32000 |
| Route | KOVAS DCT DEXUL DCT LABOM DCT IBROS DCT NEMIT Q125 ELB |
| Aircraft | B738/M-SDE2E3FGHIRWXY/LB1 |
Departure
| Time | 2026-05-07 23:06 |
|---|---|
| Airport | Cagliari Elmas Airport (LIEE) |
Arrival
| Time | 2026-05-07 23:54 |
|---|---|
| Airport | Pisa International Airport (LIRP) |
| Time | Latitude | Longitude | Altitude | Speed | Heading |
|---|---|---|---|---|---|
| 2026-05-07 22:49 | 39.25460 | 9.05769 | 14 ft | 0 kts | 322° |
| 2026-05-07 22:58 | 39.25453 | 9.05776 | 14 ft | 4 kts | 322° |
| 2026-05-07 22:58 | 39.25435 | 9.05795 | 15 ft | 2 kts | 322° |
| 2026-05-07 22:58 | 39.25422 | 9.05814 | 15 ft | 4 kts | 260° |
| 2026-05-07 22:58 | 39.25433 | 9.05840 | 15 ft | 4 kts | 232° |
| 2026-05-07 22:59 | 39.25437 | 9.05847 | 14 ft | 0 kts | 232° |
| 2026-05-07 23:00 | 39.25422 | 9.05823 | 16 ft | 8 kts | 232° |
| 2026-05-07 23:01 | 39.25385 | 9.05762 | 14 ft | 9 kts | 232° |
| 2026-05-07 23:01 | 39.25348 | 9.05701 | 15 ft | 9 kts | 230° |
| 2026-05-07 23:01 | 39.25296 | 9.05717 | 14 ft | 9 kts | 142° |
| 2026-05-07 23:01 | 39.25231 | 9.05789 | 14 ft | 18 kts | 139° |
| 2026-05-07 23:02 | 39.25123 | 9.05918 | 14 ft | 23 kts | 130° |
| 2026-05-07 23:02 | 39.25019 | 9.06068 | 14 ft | 22 kts | 133° |
| 2026-05-07 23:02 | 39.24946 | 9.06157 | 14 ft | 22 kts | 140° |
| 2026-05-07 23:02 | 39.24826 | 9.06268 | 14 ft | 21 kts | 147° |
| 2026-05-07 23:03 | 39.24705 | 9.06367 | 14 ft | 20 kts | 147° |
| 2026-05-07 23:03 | 39.24586 | 9.06463 | 14 ft | 20 kts | 148° |
| 2026-05-07 23:03 | 39.24473 | 9.06555 | 15 ft | 18 kts | 148° |
| 2026-05-07 23:03 | 39.24357 | 9.06573 | 14 ft | 17 kts | 197° |
| 2026-05-07 23:04 | 39.24255 | 9.06522 | 18 ft | 12 kts | 215° |
| 2026-05-07 23:04 | 39.24284 | 9.06429 | 15 ft | 18 kts | 318° |
| 2026-05-07 23:04 | 39.24292 | 9.06419 | 15 ft | 0 kts | 318° |
| 2026-05-07 23:05 | 39.24293 | 9.06418 | 15 ft | 1 kts | 318° |
| 2026-05-07 23:05 | 39.24344 | 9.06359 | 15 ft | 35 kts | 318° |
| 2026-05-07 23:05 | 39.24709 | 9.05937 | 14 ft | 104 kts | 318° |
| 2026-05-07 23:05 | 39.25396 | 9.05137 | 17 ft | 160 kts | 318° |
| 2026-05-07 23:06 | 39.26268 | 9.04110 | 494 ft | 171 kts | 318° |
| 2026-05-07 23:06 | 39.27175 | 9.03123 | 1249 ft | 173 kts | 330° |
| 2026-05-07 23:06 | 39.28367 | 9.02831 | 1799 ft | 183 kts | 6° |
| 2026-05-07 23:06 | 39.29728 | 9.03097 | 1980 ft | 207 kts | 9° |
| 2026-05-07 23:07 | 39.31198 | 9.03323 | 2342 ft | 218 kts | 7° |
| 2026-05-07 23:07 | 39.32727 | 9.03498 | 2812 ft | 224 kts | 7° |
| 2026-05-07 23:07 | 39.34291 | 9.03657 | 3417 ft | 226 kts | 7° |
| 2026-05-07 23:07 | 39.35856 | 9.03806 | 4081 ft | 227 kts | 7° |
| 2026-05-07 23:08 | 39.37446 | 9.03951 | 4668 ft | 231 kts | 7° |
| 2026-05-07 23:08 | 39.39056 | 9.04093 | 5296 ft | 233 kts | 7° |
| 2026-05-07 23:08 | 39.40686 | 9.04233 | 5923 ft | 236 kts | 7° |
| 2026-05-07 23:08 | 39.42333 | 9.04373 | 6534 ft | 239 kts | 7° |
| 2026-05-07 23:09 | 39.44006 | 9.04515 | 7120 ft | 243 kts | 7° |
| 2026-05-07 23:09 | 39.45682 | 9.04656 | 7693 ft | 246 kts | 7° |
| 2026-05-07 23:09 | 39.47432 | 9.04849 | 8049 ft | 263 kts | 9° |
| 2026-05-07 23:09 | 39.49331 | 9.05102 | 8301 ft | 284 kts | 9° |
| 2026-05-07 23:10 | 39.51328 | 9.05371 | 8859 ft | 292 kts | 9° |
| 2026-05-07 23:10 | 39.53369 | 9.05641 | 9555 ft | 297 kts | 9° |
| 2026-05-07 23:10 | 39.55441 | 9.05912 | 10206 ft | 302 kts | 8° |
| 2026-05-07 23:10 | 39.57609 | 9.06196 | 10417 ft | 325 kts | 8° |
| 2026-05-07 23:11 | 39.59929 | 9.06498 | 10611 ft | 345 kts | 7° |
| 2026-05-07 23:11 | 39.62358 | 9.06813 | 11079 ft | 355 kts | 7° |
| 2026-05-07 23:11 | 39.64833 | 9.07146 | 11707 ft | 360 kts | 8° |
| 2026-05-07 23:11 | 39.67298 | 9.07780 | 12386 ft | 363 kts | 14° |
| 2026-05-07 23:12 | 39.69738 | 9.08631 | 13188 ft | 363 kts | 16° |
| 2026-05-07 23:12 | 39.72193 | 9.09526 | 13803 ft | 372 kts | 15° |
| 2026-05-07 23:12 | 39.74723 | 9.10429 | 14268 ft | 381 kts | 15° |
| 2026-05-07 23:12 | 39.77293 | 9.11317 | 14942 ft | 383 kts | 14° |
| 2026-05-07 23:13 | 39.79882 | 9.12191 | 15652 ft | 386 kts | 14° |
| 2026-05-07 23:13 | 39.82496 | 9.13064 | 16319 ft | 390 kts | 13° |
| 2026-05-07 23:13 | 39.85137 | 9.13945 | 16951 ft | 394 kts | 13° |
| 2026-05-07 23:13 | 39.87778 | 9.14991 | 17585 ft | 399 kts | 18° |
| 2026-05-07 23:14 | 39.90391 | 9.16256 | 18266 ft | 402 kts | 20° |
| 2026-05-07 23:14 | 39.92996 | 9.17592 | 18897 ft | 403 kts | 21° |
| 2026-05-07 23:14 | 39.95613 | 9.18946 | 19421 ft | 407 kts | 20° |
| 2026-05-07 23:14 | 39.98261 | 9.20306 | 19924 ft | 412 kts | 20° |
| 2026-05-07 23:15 | 40.00942 | 9.21669 | 20451 ft | 416 kts | 20° |
| 2026-05-07 23:15 | 40.03654 | 9.23037 | 20964 ft | 420 kts | 20° |
| 2026-05-07 23:15 | 40.06391 | 9.24411 | 21470 ft | 423 kts | 20° |
| 2026-05-07 23:15 | 40.09154 | 9.25794 | 21978 ft | 427 kts | 20° |
| 2026-05-07 23:16 | 40.11941 | 9.27189 | 22483 ft | 431 kts | 20° |
| 2026-05-07 23:16 | 40.14749 | 9.28595 | 23021 ft | 433 kts | 20° |
| 2026-05-07 23:16 | 40.17576 | 9.30013 | 23491 ft | 438 kts | 20° |
| 2026-05-07 23:16 | 40.20434 | 9.31448 | 23868 ft | 442 kts | 20° |
| 2026-05-07 23:17 | 40.23317 | 9.32896 | 24277 ft | 445 kts | 20° |
| 2026-05-07 23:17 | 40.26208 | 9.34351 | 24726 ft | 447 kts | 20° |
| 2026-05-07 23:17 | 40.29123 | 9.35819 | 25112 ft | 450 kts | 20° |
| 2026-05-07 23:17 | 40.32052 | 9.37296 | 25500 ft | 453 kts | 20° |
| 2026-05-07 23:18 | 40.35008 | 9.38786 | 25864 ft | 456 kts | 20° |
| 2026-05-07 23:18 | 40.37980 | 9.40286 | 26230 ft | 459 kts | 20° |
| 2026-05-07 23:18 | 40.40982 | 9.41748 | 26609 ft | 462 kts | 18° |
| 2026-05-07 23:18 | 40.43988 | 9.43108 | 26979 ft | 464 kts | 17° |
| 2026-05-07 23:19 | 40.47101 | 9.44470 | 27338 ft | 467 kts | 17° |
| 2026-05-07 23:19 | 40.50155 | 9.45797 | 27688 ft | 470 kts | 17° |
| 2026-05-07 23:19 | 40.53304 | 9.47174 | 28056 ft | 471 kts | 17° |
| 2026-05-07 23:19 | 40.56377 | 9.48529 | 28428 ft | 474 kts | 17° |
| 2026-05-07 23:20 | 40.59550 | 9.49940 | 28727 ft | 477 kts | 17° |
| 2026-05-07 23:20 | 40.62660 | 9.51330 | 29025 ft | 480 kts | 17° |
| 2026-05-07 23:20 | 40.65825 | 9.52752 | 29396 ft | 481 kts | 17° |
| 2026-05-07 23:20 | 40.68992 | 9.54178 | 29879 ft | 480 kts | 17° |
| 2026-05-07 23:21 | 40.72147 | 9.55600 | 30350 ft | 478 kts | 17° |
| 2026-05-07 23:21 | 40.75293 | 9.57019 | 30737 ft | 478 kts | 17° |
| 2026-05-07 23:21 | 40.78452 | 9.58444 | 31011 ft | 481 kts | 17° |
| 2026-05-07 23:21 | 40.81619 | 9.59874 | 31331 ft | 482 kts | 17° |
| 2026-05-07 23:22 | 40.84785 | 9.61305 | 31730 ft | 480 kts | 17° |
| 2026-05-07 23:22 | 40.87945 | 9.62735 | 32004 ft | 481 kts | 17° |
| 2026-05-07 23:22 | 40.91122 | 9.64173 | 31985 ft | 483 kts | 17° |
| 2026-05-07 23:23 | 40.97463 | 9.67050 | 31988 ft | 479 kts | 16° |
| 2026-05-07 23:23 | 41.03751 | 9.69909 | 31992 ft | 478 kts | 16° |
| 2026-05-07 23:24 | 41.10034 | 9.72769 | 31988 ft | 478 kts | 16° |
| 2026-05-07 23:24 | 41.16324 | 9.75639 | 31989 ft | 478 kts | 16° |
| 2026-05-07 23:25 | 41.22616 | 9.78516 | 31972 ft | 478 kts | 16° |
| 2026-05-07 23:25 | 41.28869 | 9.81381 | 31976 ft | 479 kts | 16° |
| 2026-05-07 23:26 | 41.35168 | 9.84273 | 31960 ft | 479 kts | 16° |
| 2026-05-07 23:26 | 41.41464 | 9.87170 | 31977 ft | 479 kts | 16° |
| 2026-05-07 23:27 | 41.50909 | 9.91527 | 31979 ft | 479 kts | 16° |
| 2026-05-07 23:27 | 41.57199 | 9.94436 | 31989 ft | 478 kts | 16° |
| 2026-05-07 23:28 | 41.60314 | 9.95880 | 31861 ft | 471 kts | 16° |
| 2026-05-07 23:28 | 41.63392 | 9.97309 | 31509 ft | 464 kts | 16° |
| 2026-05-07 23:28 | 41.66424 | 9.98717 | 31123 ft | 460 kts | 16° |
| 2026-05-07 23:28 | 41.69435 | 10.00115 | 30718 ft | 456 kts | 16° |
| 2026-05-07 23:29 | 41.72423 | 10.01503 | 30335 ft | 453 kts | 16° |
| 2026-05-07 23:29 | 41.75389 | 10.02883 | 29921 ft | 450 kts | 17° |
| 2026-05-07 23:29 | 41.78337 | 10.04257 | 29473 ft | 447 kts | 17° |
| 2026-05-07 23:29 | 41.81281 | 10.05548 | 29028 ft | 443 kts | 14° |
| 2026-05-07 23:30 | 41.84226 | 10.06673 | 28617 ft | 438 kts | 12° |
| 2026-05-07 23:30 | 41.87157 | 10.07721 | 28191 ft | 434 kts | 12° |
| 2026-05-07 23:30 | 41.90069 | 10.08746 | 27776 ft | 431 kts | 12° |
| 2026-05-07 23:30 | 41.92956 | 10.09769 | 27367 ft | 428 kts | 12° |
| 2026-05-07 23:31 | 41.95819 | 10.10797 | 26965 ft | 425 kts | 13° |
| 2026-05-07 23:31 | 41.98660 | 10.11830 | 26573 ft | 422 kts | 13° |
| 2026-05-07 23:31 | 42.01482 | 10.12864 | 26172 ft | 419 kts | 13° |
| 2026-05-07 23:31 | 42.04282 | 10.13894 | 25766 ft | 416 kts | 13° |
| 2026-05-07 23:32 | 42.07065 | 10.14921 | 25370 ft | 414 kts | 14° |
| 2026-05-07 23:32 | 42.09831 | 10.15942 | 24974 ft | 411 kts | 14° |
| 2026-05-07 23:32 | 42.12582 | 10.16959 | 24581 ft | 409 kts | 14° |
| 2026-05-07 23:32 | 42.15321 | 10.17972 | 24178 ft | 407 kts | 14° |
| 2026-05-07 23:33 | 42.18045 | 10.18981 | 23797 ft | 405 kts | 14° |
| 2026-05-07 23:33 | 42.20754 | 10.19984 | 23362 ft | 403 kts | 14° |
| 2026-05-07 23:33 | 42.23454 | 10.20986 | 22907 ft | 400 kts | 14° |
| 2026-05-07 23:33 | 42.26127 | 10.21978 | 22500 ft | 397 kts | 14° |
| 2026-05-07 23:34 | 42.28776 | 10.22963 | 22123 ft | 393 kts | 14° |
| 2026-05-07 23:34 | 42.31400 | 10.23938 | 21725 ft | 390 kts | 14° |
| 2026-05-07 23:34 | 42.34002 | 10.24906 | 21346 ft | 386 kts | 14° |
| 2026-05-07 23:34 | 42.36584 | 10.25867 | 20969 ft | 383 kts | 14° |
| 2026-05-07 23:35 | 42.39139 | 10.26822 | 20616 ft | 380 kts | 14° |
| 2026-05-07 23:35 | 42.41675 | 10.27771 | 20244 ft | 377 kts | 14° |
| 2026-05-07 23:35 | 42.44193 | 10.28714 | 19871 ft | 374 kts | 14° |
| 2026-05-07 23:35 | 42.46692 | 10.29651 | 19510 ft | 371 kts | 14° |
| 2026-05-07 23:36 | 42.49142 | 10.30571 | 19144 ft | 369 kts | 14° |
| 2026-05-07 23:36 | 42.51608 | 10.31497 | 18780 ft | 367 kts | 14° |
| 2026-05-07 23:36 | 42.54060 | 10.32418 | 18417 ft | 365 kts | 14° |
| 2026-05-07 23:36 | 42.56499 | 10.33335 | 18030 ft | 363 kts | 14° |
| 2026-05-07 23:37 | 42.58923 | 10.34248 | 17620 ft | 360 kts | 14° |
| 2026-05-07 23:37 | 42.61329 | 10.35154 | 17232 ft | 358 kts | 14° |
| 2026-05-07 23:37 | 42.63719 | 10.36055 | 16863 ft | 355 kts | 14° |
| 2026-05-07 23:37 | 42.66090 | 10.36950 | 16508 ft | 352 kts | 14° |
| 2026-05-07 23:38 | 42.68444 | 10.37839 | 16154 ft | 350 kts | 14° |
| 2026-05-07 23:38 | 42.70778 | 10.38720 | 15796 ft | 347 kts | 14° |
| 2026-05-07 23:38 | 42.73100 | 10.39560 | 15450 ft | 344 kts | 9° |
| 2026-05-07 23:38 | 42.75473 | 10.39801 | 15103 ft | 340 kts | 359° |
| 2026-05-07 23:39 | 42.77833 | 10.39773 | 14761 ft | 338 kts | 357° |
| 2026-05-07 23:39 | 42.80175 | 10.39707 | 14417 ft | 336 kts | 357° |
| 2026-05-07 23:39 | 42.82507 | 10.39646 | 14071 ft | 334 kts | 357° |
| 2026-05-07 23:39 | 42.84828 | 10.39598 | 13731 ft | 333 kts | 358° |
| 2026-05-07 23:40 | 42.87141 | 10.39564 | 13336 ft | 332 kts | 358° |
| 2026-05-07 23:40 | 42.89441 | 10.39539 | 12978 ft | 330 kts | 358° |
| 2026-05-07 23:40 | 42.91727 | 10.39520 | 12623 ft | 327 kts | 358° |
| 2026-05-07 23:40 | 42.93999 | 10.39505 | 12278 ft | 325 kts | 358° |
| 2026-05-07 23:41 | 42.96253 | 10.39492 | 11933 ft | 323 kts | 358° |
| 2026-05-07 23:41 | 42.98496 | 10.39479 | 11596 ft | 321 kts | 358° |
| 2026-05-07 23:41 | 43.00720 | 10.39468 | 11266 ft | 319 kts | 358° |
| 2026-05-07 23:41 | 43.02935 | 10.39457 | 10931 ft | 317 kts | 358° |
| 2026-05-07 23:42 | 43.05138 | 10.39446 | 10604 ft | 316 kts | 358° |
| 2026-05-07 23:42 | 43.07321 | 10.39436 | 10396 ft | 310 kts | 358° |
| 2026-05-07 23:42 | 43.09448 | 10.39426 | 10252 ft | 302 kts | 358° |
| 2026-05-07 23:42 | 43.11524 | 10.39416 | 10115 ft | 294 kts | 358° |
| 2026-05-07 23:43 | 43.13545 | 10.39407 | 9976 ft | 287 kts | 358° |
| 2026-05-07 23:43 | 43.15539 | 10.39397 | 9682 ft | 286 kts | 358° |
| 2026-05-07 23:43 | 43.17523 | 10.39386 | 9401 ft | 284 kts | 359° |
| 2026-05-07 23:43 | 43.19499 | 10.39376 | 9109 ft | 283 kts | 359° |
| 2026-05-07 23:44 | 43.21462 | 10.39366 | 8832 ft | 281 kts | 360° |
| 2026-05-07 23:44 | 43.23413 | 10.39356 | 8552 ft | 280 kts | 360° |
| 2026-05-07 23:44 | 43.25353 | 10.39346 | 8285 ft | 278 kts | 0° |
| 2026-05-07 23:44 | 43.27281 | 10.39337 | 8015 ft | 276 kts | 0° |
| 2026-05-07 23:45 | 43.29201 | 10.39328 | 7746 ft | 275 kts | 0° |
| 2026-05-07 23:45 | 43.31110 | 10.39318 | 7472 ft | 274 kts | 0° |
| 2026-05-07 23:45 | 43.33009 | 10.39295 | 7197 ft | 273 kts | 358° |
| 2026-05-07 23:45 | 43.34850 | 10.38700 | 6916 ft | 273 kts | 335° |
| 2026-05-07 23:46 | 43.36401 | 10.37211 | 6651 ft | 273 kts | 314° |
| 2026-05-07 23:46 | 43.37465 | 10.35067 | 6384 ft | 273 kts | 295° |
| 2026-05-07 23:46 | 43.38037 | 10.32591 | 6113 ft | 272 kts | 284° |
| 2026-05-07 23:46 | 43.38461 | 10.30102 | 5838 ft | 270 kts | 283° |
| 2026-05-07 23:47 | 43.38926 | 10.27605 | 5564 ft | 269 kts | 287° |
| 2026-05-07 23:47 | 43.39490 | 10.25161 | 5293 ft | 268 kts | 289° |
| 2026-05-07 23:47 | 43.40143 | 10.22767 | 5020 ft | 267 kts | 292° |
| 2026-05-07 23:47 | 43.40906 | 10.20448 | 4749 ft | 265 kts | 298° |
| 2026-05-07 23:48 | 43.42027 | 10.18497 | 4632 ft | 256 kts | 322° |
| 2026-05-07 23:48 | 43.43546 | 10.17346 | 4519 ft | 247 kts | 345° |
| 2026-05-07 23:48 | 43.45207 | 10.17080 | 4414 ft | 237 kts | 6° |
| 2026-05-07 23:48 | 43.46780 | 10.17565 | 4321 ft | 228 kts | 22° |
| 2026-05-07 23:49 | 43.48132 | 10.18603 | 4230 ft | 218 kts | 36° |
| 2026-05-07 23:49 | 43.49341 | 10.19820 | 4003 ft | 213 kts | 37° |
| 2026-05-07 23:49 | 43.50512 | 10.21030 | 3754 ft | 208 kts | 37° |
| 2026-05-07 23:49 | 43.51660 | 10.22211 | 3525 ft | 203 kts | 36° |
| 2026-05-07 23:50 | 43.52800 | 10.23326 | 3309 ft | 198 kts | 36° |
| 2026-05-07 23:50 | 43.53897 | 10.24429 | 3128 ft | 191 kts | 37° |
| 2026-05-07 23:50 | 43.54954 | 10.25517 | 3032 ft | 193 kts | 37° |
| 2026-05-07 23:50 | 43.56033 | 10.26634 | 2783 ft | 192 kts | 37° |
| 2026-05-07 23:51 | 43.57090 | 10.27732 | 2519 ft | 188 kts | 37° |
| 2026-05-07 23:51 | 43.57780 | 10.28447 | 2366 ft | 186 kts | 37° |
| 2026-05-07 23:51 | 43.58806 | 10.29511 | 2123 ft | 183 kts | 37° |
| 2026-05-07 23:51 | 43.59809 | 10.30551 | 1878 ft | 177 kts | 37° |
| 2026-05-07 23:52 | 43.60761 | 10.31538 | 1673 ft | 165 kts | 37° |
| 2026-05-07 23:52 | 43.61644 | 10.32453 | 1465 ft | 157 kts | 37° |
| 2026-05-07 23:52 | 43.62508 | 10.33349 | 1247 ft | 154 kts | 37° |
| 2026-05-07 23:52 | 43.63360 | 10.34231 | 1038 ft | 153 kts | 37° |
| 2026-05-07 23:53 | 43.64210 | 10.35113 | 835 ft | 154 kts | 37° |
| 2026-05-07 23:53 | 43.65074 | 10.36004 | 615 ft | 155 kts | 37° |
| 2026-05-07 23:53 | 43.65937 | 10.36893 | 406 ft | 156 kts | 37° |
| 2026-05-07 23:53 | 43.66814 | 10.37808 | 207 ft | 158 kts | 37° |
| 2026-05-07 23:54 | 43.67684 | 10.38702 | 17 ft | 152 kts | 38° |
| 2026-05-07 23:54 | 43.68442 | 10.39490 | 9 ft | 116 kts | 37° |
| 2026-05-07 23:54 | 43.68926 | 10.39990 | 7 ft | 52 kts | 37° |
| 2026-05-07 23:54 | 43.69119 | 10.40192 | 8 ft | 30 kts | 37° |
| 2026-05-07 23:55 | 43.69248 | 10.40306 | 8 ft | 14 kts | 5° |
| 2026-05-07 23:55 | 43.69318 | 10.40223 | 11 ft | 14 kts | 307° |
| 2026-05-07 23:55 | 43.69375 | 10.40124 | 11 ft | 13 kts | 319° |
| 2026-05-07 23:55 | 43.69457 | 10.40092 | 10 ft | 12 kts | 352° |
| 2026-05-07 23:56 | 43.69536 | 10.40077 | 11 ft | 11 kts | 352° |
| 2026-05-07 23:56 | 43.69613 | 10.40062 | 10 ft | 11 kts | 352° |
| 2026-05-07 23:56 | 43.69680 | 10.40025 | 10 ft | 9 kts | 301° |
| 2026-05-07 23:56 | 43.69701 | 10.39970 | 12 ft | 7 kts | 340° |
| 2026-05-07 23:57 | 43.69740 | 10.39971 | 10 ft | 4 kts | 8° |
| 2026-05-07 23:57 | 43.69756 | 10.39975 | 10 ft | 2 kts | 8° |
| 2026-05-07 23:57 | 43.69761 | 10.39975 | 10 ft | 1 kts | 8° |
| 2026-05-07 23:57 | 43.69763 | 10.39976 | 10 ft | 0 kts | 8° |